Glenrock, Wyoming
Current Conditions -  °F | °C
As of 3:53 PM on Thursday 23 Oct 2014 (Local Time) from KDGW Reporting Station
Clear Clear  
Wind Chill: 21°   Ceiling: Unl
Heat Index: 21°   Visibility: 10mi
Dew Point: -4°   Wind: 23mph
Humidity: 18%   Direction: 280°W
Pressure: 30.01"   Gusts: 31mph
Location:  42.86°N, 105.87°W
Report Text: KDGW 232153Z AUTO 28020G27KT 10SM CLR 21/M04 A3001 RMK AO2 PK WND 29033/2111 SLP144 T02111044
Loading
Personal Weather Stations






























Interactive Weather Map
Tropical Storm Tracking
New forecast layout! Learn more

10-Day Weather Forecast

Advertisements
Track Severe Weather on mobile